sensor_id;sensor_type;location;lat;lon;timestamp;P1;durP1;ratioP1;P2;durP2;ratioP2
5060;SDS011;2549;52.128;21.068;2022-07-10T00:02:20;2.10;;;1.57;;
5060;SDS011;2549;52.128;21.068;2022-07-10T00:04:47;2.20;;;1.50;;
5060;SDS011;2549;52.128;21.068;2022-07-10T00:07:14;1.40;;;1.23;;
5060;SDS011;2549;52.128;21.068;2022-07-10T00:09:41;1.60;;;1.50;;
5060;SDS011;2549;52.128;21.068;2022-07-10T00:12:08;1.60;;;1.50;;
5060;SDS011;2549;52.128;21.068;2022-07-10T00:14:35;1.20;;;1.10;;
5060;SDS011;2549;52.128;21.068;2022-07-10T00:17:02;2.77;;;1.80;;
5060;SDS011;2549;52.128;21.068;2022-07-10T00:19:29;1.47;;;1.37;;
5060;SDS011;2549;52.128;21.068;2022-07-10T00:21:56;1.67;;;1.57;;
5060;SDS011;2549;52.128;21.068;2022-07-10T00:24:23;2.83;;;1.50;;
5060;SDS011;2549;52.128;21.068;2022-07-10T00:26:50;1.47;;;1.37;;
5060;SDS011;2549;52.128;21.068;2022-07-10T00:29:17;2.50;;;1.70;;
5060;SDS011;2549;52.128;21.068;2022-07-10T00:31:43;1.30;;;1.10;;
5060;SDS011;2549;52.128;21.068;2022-07-10T00:34:10;6.73;;;1.90;;
5060;SDS011;2549;52.128;21.068;2022-07-10T00:36:38;1.60;;;1.30;;
5060;SDS011;2549;52.128;21.068;2022-07-10T00:39:05;1.93;;;1.50;;
5060;SDS011;2549;52.128;21.068;2022-07-10T00:41:32;1.50;;;1.40;;
5060;SDS011;2549;52.128;21.068;2022-07-10T00:44:00;2.20;;;1.40;;
5060;SDS011;2549;52.128;21.068;2022-07-10T00:46:30;2.13;;;1.23;;
5060;SDS011;2549;52.128;21.068;2022-07-10T00:48:57;2.63;;;1.70;;
5060;SDS011;2549;52.128;21.068;2022-07-10T00:51:25;4.30;;;1.93;;
5060;SDS011;2549;52.128;21.068;2022-07-10T00:53:54;1.43;;;1.33;;
5060;SDS011;2549;52.128;21.068;2022-07-10T00:56:23;1.60;;;1.50;;
5060;SDS011;2549;52.128;21.068;2022-07-10T00:58:52;4.30;;;1.50;;
5060;SDS011;2549;52.128;21.068;2022-07-10T01:01:19;2.20;;;1.70;;
5060;SDS011;2549;52.128;21.068;2022-07-10T01:03:49;7.37;;;1.83;;
5060;SDS011;2549;52.128;21.068;2022-07-10T01:06:17;1.20;;;1.20;;
5060;SDS011;2549;52.128;21.068;2022-07-10T01:08:44;4.00;;;1.60;;
5060;SDS011;2549;52.128;21.068;2022-07-10T01:11:12;4.00;;;2.00;;
5060;SDS011;2549;52.128;21.068;2022-07-10T01:13:41;3.83;;;1.70;;
5060;SDS011;2549;52.128;21.068;2022-07-10T01:16:12;1.30;;;1.30;;
5060;SDS011;2549;52.128;21.068;2022-07-10T01:18:39;2.10;;;1.40;;
5060;SDS011;2549;52.128;21.068;2022-07-10T01:21:22;1.50;;;1.40;;
5060;SDS011;2549;52.128;21.068;2022-07-10T01:23:53;3.50;;;1.67;;
5060;SDS011;2549;52.128;21.068;2022-07-10T01:26:20;1.77;;;1.67;;
5060;SDS011;2549;52.128;21.068;2022-07-10T01:28:51;6.20;;;2.03;;
5060;SDS011;2549;52.128;21.068;2022-07-10T01:31:19;1.63;;;1.40;;
5060;SDS011;2549;52.128;21.068;2022-07-10T01:33:50;7.03;;;1.80;;
5060;SDS011;2549;52.128;21.068;2022-07-10T01:36:17;6.03;;;2.00;;
5060;SDS011;2549;52.128;21.068;2022-07-10T01:38:45;1.57;;;1.47;;
5060;SDS011;2549;52.128;21.068;2022-07-10T01:41:12;5.07;;;2.00;;
5060;SDS011;2549;52.128;21.068;2022-07-10T01:43:39;1.80;;;1.57;;
5060;SDS011;2549;52.128;21.068;2022-07-10T01:46:11;2.13;;;1.80;;
5060;SDS011;2549;52.128;21.068;2022-07-10T01:48:38;2.60;;;1.60;;
5060;SDS011;2549;52.128;21.068;2022-07-10T01:54:41;2.30;;;1.60;;
5060;SDS011;2549;52.128;21.068;2022-07-10T01:57:08;5.10;;;2.00;;
5060;SDS011;2549;52.128;21.068;2022-07-10T01:59:34;1.83;;;1.73;;
5060;SDS011;2549;52.128;21.068;2022-07-10T02:02:01;3.43;;;2.37;;
5060;SDS011;2549;52.128;21.068;2022-07-10T02:04:28;2.03;;;1.77;;
5060;SDS011;2549;52.128;21.068;2022-07-10T02:07:08;4.37;;;2.00;;
5060;SDS011;2549;52.128;21.068;2022-07-10T02:09:35;2.00;;;1.80;;
5060;SDS011;2549;52.128;21.068;2022-07-10T02:12:03;7.30;;;2.40;;
5060;SDS011;2549;52.128;21.068;2022-07-10T02:14:30;1.93;;;1.80;;
5060;SDS011;2549;52.128;21.068;2022-07-10T02:16:57;2.40;;;1.73;;
5060;SDS011;2549;52.128;21.068;2022-07-10T02:19:24;2.07;;;1.90;;
5060;SDS011;2549;52.128;21.068;2022-07-10T02:21:51;2.00;;;1.90;;
5060;SDS011;2549;52.128;21.068;2022-07-10T02:24:18;4.70;;;1.90;;
5060;SDS011;2549;52.128;21.068;2022-07-10T02:26:45;2.30;;;2.10;;
5060;SDS011;2549;52.128;21.068;2022-07-10T02:29:12;4.47;;;1.97;;
5060;SDS011;2549;52.128;21.068;2022-07-10T02:31:39;2.23;;;1.93;;
5060;SDS011;2549;52.128;21.068;2022-07-10T02:34:10;1.97;;;1.87;;
5060;SDS011;2549;52.128;21.068;2022-07-10T02:36:37;4.03;;;1.83;;
5060;SDS011;2549;52.128;21.068;2022-07-10T02:39:05;1.73;;;1.63;;
5060;SDS011;2549;52.128;21.068;2022-07-10T02:41:33;3.03;;;2.20;;
5060;SDS011;2549;52.128;21.068;2022-07-10T02:44:02;1.60;;;1.50;;
5060;SDS011;2549;52.128;21.068;2022-07-10T02:46:30;1.83;;;1.73;;
5060;SDS011;2549;52.128;21.068;2022-07-10T02:48:57;2.93;;;2.20;;
5060;SDS011;2549;52.128;21.068;2022-07-10T02:51:24;2.60;;;2.40;;
5060;SDS011;2549;52.128;21.068;2022-07-10T02:53:50;1.77;;;1.67;;
5060;SDS011;2549;52.128;21.068;2022-07-10T02:56:17;3.57;;;2.37;;
5060;SDS011;2549;52.128;21.068;2022-07-10T02:58:44;5.13;;;1.70;;
5060;SDS011;2549;52.128;21.068;2022-07-10T03:01:11;3.60;;;1.77;;
5060;SDS011;2549;52.128;21.068;2022-07-10T03:03:38;2.20;;;2.10;;
5060;SDS011;2549;52.128;21.068;2022-07-10T03:06:05;3.03;;;1.70;;
5060;SDS011;2549;52.128;21.068;2022-07-10T03:08:32;3.97;;;1.90;;
5060;SDS011;2549;52.128;21.068;2022-07-10T03:10:59;1.60;;;1.50;;
5060;SDS011;2549;52.128;21.068;2022-07-10T03:13:25;2.57;;;2.37;;
5060;SDS011;2549;52.128;21.068;2022-07-10T03:15:55;2.50;;;2.30;;
5060;SDS011;2549;52.128;21.068;2022-07-10T03:18:22;1.87;;;1.77;;
5060;SDS011;2549;52.128;21.068;2022-07-10T03:20:49;3.00;;;2.20;;
5060;SDS011;2549;52.128;21.068;2022-07-10T03:23:16;4.03;;;2.07;;
5060;SDS011;2549;52.128;21.068;2022-07-10T03:25:43;2.07;;;1.97;;
5060;SDS011;2549;52.128;21.068;2022-07-10T03:28:10;2.40;;;2.20;;
5060;SDS011;2549;52.128;21.068;2022-07-10T03:30:37;5.70;;;2.57;;
5060;SDS011;2549;52.128;21.068;2022-07-10T03:33:04;2.47;;;2.20;;
5060;SDS011;2549;52.128;21.068;2022-07-10T03:35:31;2.87;;;2.70;;
5060;SDS011;2549;52.128;21.068;2022-07-10T03:37:57;2.30;;;2.10;;
5060;SDS011;2549;52.128;21.068;2022-07-10T03:40:24;4.73;;;2.77;;
5060;SDS011;2549;52.128;21.068;2022-07-10T03:42:52;2.20;;;2.10;;
5060;SDS011;2549;52.128;21.068;2022-07-10T03:45:19;2.83;;;2.30;;
5060;SDS011;2549;52.128;21.068;2022-07-10T03:47:46;6.93;;;2.90;;
5060;SDS011;2549;52.128;21.068;2022-07-10T03:50:13;3.50;;;2.00;;
5060;SDS011;2549;52.128;21.068;2022-07-10T03:52:40;2.97;;;2.77;;
5060;SDS011;2549;52.128;21.068;2022-07-10T03:55:07;4.57;;;2.43;;
5060;SDS011;2549;52.128;21.068;2022-07-10T03:57:34;2.90;;;2.50;;
5060;SDS011;2549;52.128;21.068;2022-07-10T04:00:20;3.83;;;2.53;;
5060;SDS011;2549;52.128;21.068;2022-07-10T04:02:55;5.80;;;2.20;;
5060;SDS011;2549;52.128;21.068;2022-07-10T04:05:23;2.23;;;2.13;;
5060;SDS011;2549;52.128;21.068;2022-07-10T04:07:51;2.87;;;2.43;;
5060;SDS011;2549;52.128;21.068;2022-07-10T04:10:18;4.67;;;2.50;;
5060;SDS011;2549;52.128;21.068;2022-07-10T04:12:45;2.47;;;2.37;;
5060;SDS011;2549;52.128;21.068;2022-07-10T04:15:12;2.43;;;2.23;;
5060;SDS011;2549;52.128;21.068;2022-07-10T04:17:39;7.60;;;2.50;;
5060;SDS011;2549;52.128;21.068;2022-07-10T04:20:07;3.67;;;2.40;;
5060;SDS011;2549;52.128;21.068;2022-07-10T04:22:34;6.57;;;2.50;;
5060;SDS011;2549;52.128;21.068;2022-07-10T04:25:02;3.03;;;2.67;;
5060;SDS011;2549;52.128;21.068;2022-07-10T04:27:29;5.00;;;2.73;;
5060;SDS011;2549;52.128;21.068;2022-07-10T04:29:57;3.50;;;3.20;;
5060;SDS011;2549;52.128;21.068;2022-07-10T04:32:24;2.00;;;1.90;;
5060;SDS011;2549;52.128;21.068;2022-07-10T04:34:51;3.57;;;3.00;;
5060;SDS011;2549;52.128;21.068;2022-07-10T04:37:18;4.87;;;3.50;;
5060;SDS011;2549;52.128;21.068;2022-07-10T04:39:46;5.13;;;2.37;;
5060;SDS011;2549;52.128;21.068;2022-07-10T04:42:13;3.53;;;2.53;;
5060;SDS011;2549;52.128;21.068;2022-07-10T04:44:40;3.13;;;2.70;;
5060;SDS011;2549;52.128;21.068;2022-07-10T04:47:06;5.33;;;2.53;;
5060;SDS011;2549;52.128;21.068;2022-07-10T04:49:34;20.53;;;3.07;;
5060;SDS011;2549;52.128;21.068;2022-07-10T04:52:01;7.53;;;1.97;;
5060;SDS011;2549;52.128;21.068;2022-07-10T04:54:28;4.07;;;2.80;;
5060;SDS011;2549;52.128;21.068;2022-07-10T04:56:55;2.63;;;2.43;;
5060;SDS011;2549;52.128;21.068;2022-07-10T04:59:22;4.53;;;2.60;;
5060;SDS011;2549;52.128;21.068;2022-07-10T05:01:49;4.47;;;2.10;;
5060;SDS011;2549;52.128;21.068;2022-07-10T05:04:16;2.00;;;1.90;;
5060;SDS011;2549;52.128;21.068;2022-07-10T05:06:42;4.20;;;1.80;;
5060;SDS011;2549;52.128;21.068;2022-07-10T05:09:09;4.57;;;2.20;;
5060;SDS011;2549;52.128;21.068;2022-07-10T05:11:36;2.40;;;2.20;;
5060;SDS011;2549;52.128;21.068;2022-07-10T05:14:03;9.07;;;2.30;;
5060;SDS011;2549;52.128;21.068;2022-07-10T05:16:30;2.97;;;2.00;;
5060;SDS011;2549;52.128;21.068;2022-07-10T05:18:57;2.40;;;2.20;;
5060;SDS011;2549;52.128;21.068;2022-07-10T05:21:24;2.50;;;2.00;;
5060;SDS011;2549;52.128;21.068;2022-07-10T05:23:51;2.63;;;1.80;;
5060;SDS011;2549;52.128;21.068;2022-07-10T05:26:19;1.93;;;1.83;;
5060;SDS011;2549;52.128;21.068;2022-07-10T05:28:45;6.67;;;1.50;;
5060;SDS011;2549;52.128;21.068;2022-07-10T05:31:12;4.27;;;2.00;;
5060;SDS011;2549;52.128;21.068;2022-07-10T05:33:39;4.10;;;1.80;;
5060;SDS011;2549;52.128;21.068;2022-07-10T05:36:07;4.97;;;1.70;;
5060;SDS011;2549;52.128;21.068;2022-07-10T05:38:34;1.90;;;1.80;;
5060;SDS011;2549;52.128;21.068;2022-07-10T05:41:02;6.80;;;2.00;;
5060;SDS011;2549;52.128;21.068;2022-07-10T05:43:29;1.80;;;1.70;;
5060;SDS011;2549;52.128;21.068;2022-07-10T05:45:56;2.53;;;1.57;;
5060;SDS011;2549;52.128;21.068;2022-07-10T05:48:24;3.33;;;1.97;;
5060;SDS011;2549;52.128;21.068;2022-07-10T05:50:51;3.57;;;1.50;;
5060;SDS011;2549;52.128;21.068;2022-07-10T05:53:18;6.33;;;2.23;;
5060;SDS011;2549;52.128;21.068;2022-07-10T05:55:46;6.40;;;1.57;;
5060;SDS011;2549;52.128;21.068;2022-07-10T05:58:14;6.93;;;1.67;;
5060;SDS011;2549;52.128;21.068;2022-07-10T06:00:42;2.50;;;1.13;;
5060;SDS011;2549;52.128;21.068;2022-07-10T06:03:10;2.37;;;1.43;;
5060;SDS011;2549;52.128;21.068;2022-07-10T06:05:37;2.20;;;1.50;;
5060;SDS011;2549;52.128;21.068;2022-07-10T06:08:04;3.37;;;1.67;;
5060;SDS011;2549;52.128;21.068;2022-07-10T06:10:31;3.93;;;1.83;;
5060;SDS011;2549;52.128;21.068;2022-07-10T06:12:58;3.77;;;1.67;;
5060;SDS011;2549;52.128;21.068;2022-07-10T06:15:25;2.60;;;2.00;;
5060;SDS011;2549;52.128;21.068;2022-07-10T06:17:53;1.70;;;1.20;;
5060;SDS011;2549;52.128;21.068;2022-07-10T06:20:26;1.80;;;1.70;;
5060;SDS011;2549;52.128;21.068;2022-07-10T06:22:53;2.00;;;1.60;;
5060;SDS011;2549;52.128;21.068;2022-07-10T06:25:20;2.47;;;1.77;;
5060;SDS011;2549;52.128;21.068;2022-07-10T06:27:47;4.57;;;1.53;;
5060;SDS011;2549;52.128;21.068;2022-07-10T06:30:14;3.63;;;1.83;;
5060;SDS011;2549;52.128;21.068;2022-07-10T06:32:41;5.37;;;1.80;;
5060;SDS011;2549;52.128;21.068;2022-07-10T06:35:10;1.90;;;1.30;;
5060;SDS011;2549;52.128;21.068;2022-07-10T06:37:37;1.67;;;1.57;;
5060;SDS011;2549;52.128;21.068;2022-07-10T06:40:04;5.73;;;1.77;;
5060;SDS011;2549;52.128;21.068;2022-07-10T06:42:31;3.10;;;2.10;;
5060;SDS011;2549;52.128;21.068;2022-07-10T06:44:58;2.40;;;1.97;;
5060;SDS011;2549;52.128;21.068;2022-07-10T06:47:25;2.13;;;1.93;;
5060;SDS011;2549;52.128;21.068;2022-07-10T06:50:10;3.33;;;2.00;;
5060;SDS011;2549;52.128;21.068;2022-07-10T06:52:37;5.10;;;2.40;;
5060;SDS011;2549;52.128;21.068;2022-07-10T06:55:04;4.30;;;2.90;;
5060;SDS011;2549;52.128;21.068;2022-07-10T06:57:32;5.40;;;2.77;;
5060;SDS011;2549;52.128;21.068;2022-07-10T06:59:59;2.57;;;2.27;;
5060;SDS011;2549;52.128;21.068;2022-07-10T07:02:26;2.37;;;2.10;;
5060;SDS011;2549;52.128;21.068;2022-07-10T07:04:54;2.50;;;1.87;;
5060;SDS011;2549;52.128;21.068;2022-07-10T07:07:21;2.27;;;2.07;;
5060;SDS011;2549;52.128;21.068;2022-07-10T07:09:51;4.57;;;1.97;;
5060;SDS011;2549;52.128;21.068;2022-07-10T07:12:18;5.00;;;1.80;;
5060;SDS011;2549;52.128;21.068;2022-07-10T07:14:45;3.60;;;1.40;;
5060;SDS011;2549;52.128;21.068;2022-07-10T07:17:13;4.73;;;1.77;;
5060;SDS011;2549;52.128;21.068;2022-07-10T07:19:48;1.57;;;1.47;;
5060;SDS011;2549;52.128;21.068;2022-07-10T07:22:34;5.77;;;1.60;;
5060;SDS011;2549;52.128;21.068;2022-07-10T07:25:19;1.67;;;1.57;;
5060;SDS011;2549;52.128;21.068;2022-07-10T07:27:46;2.47;;;1.50;;
5060;SDS011;2549;52.128;21.068;2022-07-10T07:30:14;5.03;;;1.27;;
5060;SDS011;2549;52.128;21.068;2022-07-10T07:32:42;2.67;;;1.30;;
5060;SDS011;2549;52.128;21.068;2022-07-10T07:35:11;1.20;;;1.10;;
5060;SDS011;2549;52.128;21.068;2022-07-10T07:37:40;5.70;;;1.50;;
5060;SDS011;2549;52.128;21.068;2022-07-10T07:40:12;3.67;;;1.60;;
5060;SDS011;2549;52.128;21.068;2022-07-10T07:42:41;1.43;;;1.30;;
5060;SDS011;2549;52.128;21.068;2022-07-10T07:45:09;5.13;;;1.33;;
5060;SDS011;2549;52.128;21.068;2022-07-10T07:47:45;2.90;;;1.10;;
5060;SDS011;2549;52.128;21.068;2022-07-10T07:50:17;9.93;;;1.57;;
5060;SDS011;2549;52.128;21.068;2022-07-10T07:52:45;2.43;;;1.60;;
5060;SDS011;2549;52.128;21.068;2022-07-10T07:55:13;4.77;;;1.47;;
5060;SDS011;2549;52.128;21.068;2022-07-10T07:57:42;3.30;;;1.30;;
5060;SDS011;2549;52.128;21.068;2022-07-10T08:00:10;2.63;;;1.20;;
5060;SDS011;2549;52.128;21.068;2022-07-10T08:02:39;5.83;;;1.50;;
5060;SDS011;2549;52.128;21.068;2022-07-10T08:05:06;5.80;;;1.50;;
5060;SDS011;2549;52.128;21.068;2022-07-10T08:07:34;4.07;;;1.33;;
5060;SDS011;2549;52.128;21.068;2022-07-10T08:10:10;3.27;;;1.30;;
5060;SDS011;2549;52.128;21.068;2022-07-10T08:12:42;2.80;;;1.30;;
5060;SDS011;2549;52.128;21.068;2022-07-10T08:15:12;8.77;;;2.20;;
5060;SDS011;2549;52.128;21.068;2022-07-10T08:17:41;1.90;;;1.10;;
5060;SDS011;2549;52.128;21.068;2022-07-10T08:20:10;4.10;;;1.50;;
5060;SDS011;2549;52.128;21.068;2022-07-10T08:22:38;3.50;;;1.53;;
5060;SDS011;2549;52.128;21.068;2022-07-10T08:25:09;2.40;;;1.60;;
5060;SDS011;2549;52.128;21.068;2022-07-10T08:27:36;6.30;;;0.90;;
5060;SDS011;2549;52.128;21.068;2022-07-10T08:30:04;2.00;;;1.17;;
5060;SDS011;2549;52.128;21.068;2022-07-10T08:32:32;1.87;;;1.30;;
5060;SDS011;2549;52.128;21.068;2022-07-10T08:34:59;3.27;;;1.30;;
5060;SDS011;2549;52.128;21.068;2022-07-10T08:37:26;2.73;;;0.93;;
5060;SDS011;2549;52.128;21.068;2022-07-10T08:39:53;10.00;;;1.40;;
5060;SDS011;2549;52.128;21.068;2022-07-10T08:42:20;1.53;;;1.03;;
5060;SDS011;2549;52.128;21.068;2022-07-10T08:44:48;1.33;;;1.20;;
5060;SDS011;2549;52.128;21.068;2022-07-10T08:47:20;2.50;;;1.00;;
5060;SDS011;2549;52.128;21.068;2022-07-10T08:49:48;2.80;;;1.10;;
5060;SDS011;2549;52.128;21.068;2022-07-10T08:55:04;4.50;;;1.13;;
5060;SDS011;2549;52.128;21.068;2022-07-10T08:57:31;4.03;;;1.63;;
5060;SDS011;2549;52.128;21.068;2022-07-10T09:00:00;2.30;;;1.50;;
5060;SDS011;2549;52.128;21.068;2022-07-10T09:02:27;4.57;;;1.60;;
5060;SDS011;2549;52.128;21.068;2022-07-10T09:04:54;0.83;;;0.80;;
5060;SDS011;2549;52.128;21.068;2022-07-10T09:07:21;2.10;;;1.10;;
5060;SDS011;2549;52.128;21.068;2022-07-10T09:09:51;1.40;;;1.30;;
5060;SDS011;2549;52.128;21.068;2022-07-10T09:12:23;2.60;;;1.20;;
5060;SDS011;2549;52.128;21.068;2022-07-10T09:14:51;1.83;;;0.90;;
5060;SDS011;2549;52.128;21.068;2022-07-10T09:17:18;9.93;;;1.30;;
5060;SDS011;2549;52.128;21.068;2022-07-10T09:19:45;2.53;;;0.90;;
5060;SDS011;2549;52.128;21.068;2022-07-10T09:22:13;4.83;;;1.10;;
5060;SDS011;2549;52.128;21.068;2022-07-10T09:24:42;2.47;;;1.27;;
5060;SDS011;2549;52.128;21.068;2022-07-10T09:27:11;4.07;;;1.23;;
5060;SDS011;2549;52.128;21.068;2022-07-10T09:29:47;2.63;;;0.93;;
5060;SDS011;2549;52.128;21.068;2022-07-10T09:32:16;3.23;;;1.10;;
5060;SDS011;2549;52.128;21.068;2022-07-10T09:37:24;2.23;;;0.87;;
5060;SDS011;2549;52.128;21.068;2022-07-10T09:40:06;2.40;;;0.80;;
5060;SDS011;2549;52.128;21.068;2022-07-10T09:42:41;2.33;;;1.37;;
5060;SDS011;2549;52.128;21.068;2022-07-10T09:45:14;2.87;;;1.03;;
5060;SDS011;2549;52.128;21.068;2022-07-10T09:48:00;7.60;;;1.50;;
5060;SDS011;2549;52.128;21.068;2022-07-10T09:53:00;5.27;;;0.97;;
5060;SDS011;2549;52.128;21.068;2022-07-10T09:55:29;0.97;;;0.83;;
5060;SDS011;2549;52.128;21.068;2022-07-10T09:58:01;5.40;;;0.93;;
5060;SDS011;2549;52.128;21.068;2022-07-10T10:00:37;2.60;;;1.10;;
5060;SDS011;2549;52.128;21.068;2022-07-10T10:03:07;1.37;;;1.00;;
5060;SDS011;2549;52.128;21.068;2022-07-10T10:05:54;2.13;;;1.10;;
5060;SDS011;2549;52.128;21.068;2022-07-10T10:10:54;4.70;;;1.07;;
5060;SDS011;2549;52.128;21.068;2022-07-10T10:13:24;2.30;;;0.90;;
5060;SDS011;2549;52.128;21.068;2022-07-10T10:15:55;1.80;;;1.40;;
5060;SDS011;2549;52.128;21.068;2022-07-10T10:18:23;1.07;;;0.80;;
5060;SDS011;2549;52.128;21.068;2022-07-10T10:20:52;6.97;;;1.30;;
5060;SDS011;2549;52.128;21.068;2022-07-10T10:23:24;5.47;;;1.20;;
5060;SDS011;2549;52.128;21.068;2022-07-10T10:25:52;1.10;;;0.80;;
5060;SDS011;2549;52.128;21.068;2022-07-10T10:28:23;2.03;;;1.80;;
5060;SDS011;2549;52.128;21.068;2022-07-10T10:30:52;6.30;;;1.00;;
5060;SDS011;2549;52.128;21.068;2022-07-10T10:36:10;1.43;;;1.10;;
5060;SDS011;2549;52.128;21.068;2022-07-10T10:46:35;3.70;;;0.97;;
5060;SDS011;2549;52.128;21.068;2022-07-10T10:49:20;1.37;;;0.90;;
5060;SDS011;2549;52.128;21.068;2022-07-10T10:54:25;0.90;;;0.70;;
5060;SDS011;2549;52.128;21.068;2022-07-10T10:57:16;1.63;;;0.80;;
5060;SDS011;2549;52.128;21.068;2022-07-10T10:59:50;1.37;;;0.70;;
5060;SDS011;2549;52.128;21.068;2022-07-10T11:04:49;1.17;;;0.77;;
5060;SDS011;2549;52.128;21.068;2022-07-10T11:10:35;1.50;;;0.80;;
5060;SDS011;2549;52.128;21.068;2022-07-10T11:13:16;3.80;;;0.67;;
5060;SDS011;2549;52.128;21.068;2022-07-10T11:15:47;1.80;;;0.80;;
5060;SDS011;2549;52.128;21.068;2022-07-10T11:18:17;2.20;;;1.03;;
5060;SDS011;2549;52.128;21.068;2022-07-10T11:20:46;2.70;;;1.20;;
5060;SDS011;2549;52.128;21.068;2022-07-10T11:26:21;1.67;;;1.03;;
5060;SDS011;2549;52.128;21.068;2022-07-10T11:29:05;2.77;;;1.00;;
5060;SDS011;2549;52.128;21.068;2022-07-10T11:31:32;2.17;;;1.10;;
5060;SDS011;2549;52.128;21.068;2022-07-10T11:34:11;1.93;;;1.10;;
5060;SDS011;2549;52.128;21.068;2022-07-10T11:36:38;10.13;;;1.47;;
5060;SDS011;2549;52.128;21.068;2022-07-10T11:39:06;3.07;;;1.10;;
5060;SDS011;2549;52.128;21.068;2022-07-10T11:41:42;6.20;;;1.10;;
5060;SDS011;2549;52.128;21.068;2022-07-10T11:44:13;0.90;;;0.70;;
5060;SDS011;2549;52.128;21.068;2022-07-10T11:46:46;2.67;;;0.90;;
5060;SDS011;2549;52.128;21.068;2022-07-10T11:49:15;3.17;;;0.93;;
5060;SDS011;2549;52.128;21.068;2022-07-10T11:51:45;1.73;;;0.90;;
5060;SDS011;2549;52.128;21.068;2022-07-10T11:54:15;2.20;;;1.37;;
5060;SDS011;2549;52.128;21.068;2022-07-10T11:56:48;2.03;;;1.10;;
5060;SDS011;2549;52.128;21.068;2022-07-10T11:59:18;3.27;;;1.20;;
5060;SDS011;2549;52.128;21.068;2022-07-10T12:01:54;2.60;;;0.90;;
5060;SDS011;2549;52.128;21.068;2022-07-10T12:04:23;4.00;;;1.07;;
5060;SDS011;2549;52.128;21.068;2022-07-10T12:06:53;5.03;;;1.13;;
5060;SDS011;2549;52.128;21.068;2022-07-10T12:09:20;5.40;;;0.97;;
5060;SDS011;2549;52.128;21.068;2022-07-10T12:11:59;3.13;;;1.33;;
5060;SDS011;2549;52.128;21.068;2022-07-10T12:14:27;1.40;;;0.70;;
5060;SDS011;2549;52.128;21.068;2022-07-10T12:16:54;2.20;;;0.60;;
5060;SDS011;2549;52.128;21.068;2022-07-10T12:19:24;1.67;;;0.70;;
5060;SDS011;2549;52.128;21.068;2022-07-10T12:21:53;3.47;;;0.70;;
5060;SDS011;2549;52.128;21.068;2022-07-10T12:24:23;2.13;;;0.70;;
5060;SDS011;2549;52.128;21.068;2022-07-10T12:26:52;1.17;;;0.80;;
5060;SDS011;2549;52.128;21.068;2022-07-10T12:29:22;0.73;;;0.73;;
5060;SDS011;2549;52.128;21.068;2022-07-10T12:32:03;2.00;;;0.80;;
5060;SDS011;2549;52.128;21.068;2022-07-10T12:34:34;1.53;;;0.70;;
5060;SDS011;2549;52.128;21.068;2022-07-10T12:37:07;1.10;;;0.50;;
5060;SDS011;2549;52.128;21.068;2022-07-10T12:39:49;0.97;;;0.60;;
5060;SDS011;2549;52.128;21.068;2022-07-10T12:42:26;2.00;;;0.60;;
5060;SDS011;2549;52.128;21.068;2022-07-10T12:45:06;3.97;;;0.90;;
5060;SDS011;2549;52.128;21.068;2022-07-10T12:47:45;3.27;;;0.80;;
5060;SDS011;2549;52.128;21.068;2022-07-10T12:50:14;2.60;;;0.77;;
5060;SDS011;2549;52.128;21.068;2022-07-10T12:52:43;1.03;;;0.73;;
5060;SDS011;2549;52.128;21.068;2022-07-10T12:55:17;5.50;;;1.00;;
5060;SDS011;2549;52.128;21.068;2022-07-10T12:57:55;4.13;;;0.90;;
5060;SDS011;2549;52.128;21.068;2022-07-10T13:00:23;1.60;;;0.90;;
5060;SDS011;2549;52.128;21.068;2022-07-10T13:03:01;2.60;;;1.10;;
5060;SDS011;2549;52.128;21.068;2022-07-10T13:05:40;0.80;;;0.80;;
5060;SDS011;2549;52.128;21.068;2022-07-10T13:10:45;2.03;;;0.90;;
5060;SDS011;2549;52.128;21.068;2022-07-10T13:13:14;2.03;;;0.90;;
5060;SDS011;2549;52.128;21.068;2022-07-10T13:15:42;4.40;;;1.33;;
5060;SDS011;2549;52.128;21.068;2022-07-10T13:18:24;4.33;;;0.80;;
5060;SDS011;2549;52.128;21.068;2022-07-10T13:20:54;3.43;;;1.00;;
5060;SDS011;2549;52.128;21.068;2022-07-10T13:23:27;0.60;;;0.60;;
5060;SDS011;2549;52.128;21.068;2022-07-10T13:25:58;1.60;;;1.03;;
5060;SDS011;2549;52.128;21.068;2022-07-10T13:28:25;1.30;;;0.93;;
5060;SDS011;2549;52.128;21.068;2022-07-10T13:30:52;0.67;;;0.67;;
5060;SDS011;2549;52.128;21.068;2022-07-10T13:33:19;0.90;;;0.90;;
5060;SDS011;2549;52.128;21.068;2022-07-10T13:35:46;2.00;;;0.83;;
5060;SDS011;2549;52.128;21.068;2022-07-10T13:38:14;5.80;;;0.87;;
5060;SDS011;2549;52.128;21.068;2022-07-10T13:40:44;5.80;;;1.00;;
5060;SDS011;2549;52.128;21.068;2022-07-10T13:43:12;1.60;;;0.90;;
5060;SDS011;2549;52.128;21.068;2022-07-10T13:45:42;2.83;;;0.90;;
5060;SDS011;2549;52.128;21.068;2022-07-10T13:48:13;2.10;;;1.20;;
5060;SDS011;2549;52.128;21.068;2022-07-10T13:50:42;5.37;;;1.20;;
5060;SDS011;2549;52.128;21.068;2022-07-10T13:53:10;1.30;;;0.90;;
5060;SDS011;2549;52.128;21.068;2022-07-10T13:55:37;5.93;;;1.40;;
5060;SDS011;2549;52.128;21.068;2022-07-10T13:58:04;2.10;;;1.03;;
5060;SDS011;2549;52.128;21.068;2022-07-10T14:00:31;1.77;;;1.00;;
5060;SDS011;2549;52.128;21.068;2022-07-10T14:02:58;1.20;;;0.90;;
5060;SDS011;2549;52.128;21.068;2022-07-10T14:05:27;1.63;;;1.20;;
5060;SDS011;2549;52.128;21.068;2022-07-10T14:07:54;1.60;;;1.30;;
5060;SDS011;2549;52.128;21.068;2022-07-10T14:10:21;5.23;;;1.57;;
5060;SDS011;2549;52.128;21.068;2022-07-10T14:12:48;0.83;;;0.80;;
5060;SDS011;2549;52.128;21.068;2022-07-10T14:15:16;1.90;;;1.10;;
5060;SDS011;2549;52.128;21.068;2022-07-10T14:17:43;1.07;;;0.90;;
5060;SDS011;2549;52.128;21.068;2022-07-10T14:20:11;3.37;;;1.57;;
5060;SDS011;2549;52.128;21.068;2022-07-10T14:22:38;1.77;;;1.30;;
5060;SDS011;2549;52.128;21.068;2022-07-10T14:25:05;2.40;;;0.93;;
5060;SDS011;2549;52.128;21.068;2022-07-10T14:27:34;3.77;;;1.50;;
5060;SDS011;2549;52.128;21.068;2022-07-10T14:30:02;1.60;;;0.87;;
5060;SDS011;2549;52.128;21.068;2022-07-10T14:32:30;3.07;;;1.47;;
5060;SDS011;2549;52.128;21.068;2022-07-10T14:34:57;1.47;;;1.00;;
5060;SDS011;2549;52.128;21.068;2022-07-10T14:37:24;3.17;;;1.63;;
5060;SDS011;2549;52.128;21.068;2022-07-10T14:39:51;2.40;;;1.23;;
5060;SDS011;2549;52.128;21.068;2022-07-10T14:42:18;1.03;;;0.87;;
5060;SDS011;2549;52.128;21.068;2022-07-10T14:44:45;4.33;;;1.20;;
5060;SDS011;2549;52.128;21.068;2022-07-10T14:47:12;4.23;;;1.40;;
5060;SDS011;2549;52.128;21.068;2022-07-10T14:49:40;2.40;;;1.00;;
5060;SDS011;2549;52.128;21.068;2022-07-10T14:52:07;1.87;;;1.20;;
5060;SDS011;2549;52.128;21.068;2022-07-10T14:54:34;0.90;;;0.90;;
5060;SDS011;2549;52.128;21.068;2022-07-10T14:57:00;2.90;;;1.00;;
5060;SDS011;2549;52.128;21.068;2022-07-10T14:59:29;5.50;;;1.00;;
5060;SDS011;2549;52.128;21.068;2022-07-10T15:01:56;0.60;;;0.60;;
5060;SDS011;2549;52.128;21.068;2022-07-10T15:04:23;1.50;;;0.70;;
5060;SDS011;2549;52.128;21.068;2022-07-10T15:06:50;0.60;;;0.60;;
5060;SDS011;2549;52.128;21.068;2022-07-10T15:09:17;4.40;;;0.83;;
5060;SDS011;2549;52.128;21.068;2022-07-10T15:11:44;0.60;;;0.60;;
5060;SDS011;2549;52.128;21.068;2022-07-10T15:14:12;1.40;;;0.60;;
5060;SDS011;2549;52.128;21.068;2022-07-10T15:16:39;0.93;;;0.80;;
5060;SDS011;2549;52.128;21.068;2022-07-10T15:19:06;1.43;;;0.60;;
5060;SDS011;2549;52.128;21.068;2022-07-10T15:21:36;1.30;;;0.70;;
5060;SDS011;2549;52.128;21.068;2022-07-10T15:24:03;0.83;;;0.60;;
5060;SDS011;2549;52.128;21.068;2022-07-10T15:26:30;0.93;;;0.60;;
5060;SDS011;2549;52.128;21.068;2022-07-10T15:28:57;0.70;;;0.60;;
5060;SDS011;2549;52.128;21.068;2022-07-10T15:31:25;2.30;;;0.83;;
5060;SDS011;2549;52.128;21.068;2022-07-10T15:33:53;2.83;;;0.60;;
5060;SDS011;2549;52.128;21.068;2022-07-10T15:36:19;0.70;;;0.70;;
5060;SDS011;2549;52.128;21.068;2022-07-10T15:38:48;0.70;;;0.70;;
5060;SDS011;2549;52.128;21.068;2022-07-10T15:41:15;0.80;;;0.60;;
5060;SDS011;2549;52.128;21.068;2022-07-10T15:43:42;0.60;;;0.60;;
5060;SDS011;2549;52.128;21.068;2022-07-10T15:46:10;0.70;;;0.70;;
5060;SDS011;2549;52.128;21.068;2022-07-10T15:48:40;1.03;;;0.80;;
5060;SDS011;2549;52.128;21.068;2022-07-10T15:51:08;1.53;;;1.03;;